sensor_id;sensor_type;location;lat;lon;timestamp;pressure;altitude;pressure_sealevel;temperature;humidity
62051;BME280;48008;51.204;6.766;2022-12-29T00:00:53;99887.03;;;9.87;100.00
62051;BME280;48008;51.204;6.766;2022-12-29T00:03:20;99894.00;;;9.88;100.00
62051;BME280;48008;51.204;6.766;2022-12-29T00:05:54;99892.00;;;9.90;100.00
62051;BME280;48008;51.204;6.766;2022-12-29T00:08:21;99881.41;;;9.90;100.00
62051;BME280;48008;51.204;6.766;2022-12-29T00:11:08;99877.63;;;9.84;100.00
62051;BME280;48008;51.204;6.766;2022-12-29T00:13:35;99873.44;;;9.90;100.00
62051;BME280;48008;51.204;6.766;2022-12-29T00:16:22;99870.91;;;10.05;100.00
62051;BME280;48008;51.204;6.766;2022-12-29T00:18:49;99860.66;;;10.02;100.00
62051;BME280;48008;51.204;6.766;2022-12-29T00:21:19;99863.50;;;9.92;100.00
62051;BME280;48008;51.204;6.766;2022-12-29T00:24:06;99858.31;;;9.98;100.00
62051;BME280;48008;51.204;6.766;2022-12-29T00:26:58;99852.53;;;9.95;100.00
62051;BME280;48008;51.204;6.766;2022-12-29T00:29:44;99859.69;;;9.94;100.00
62051;BME280;48008;51.204;6.766;2022-12-29T00:32:31;99843.28;;;9.99;100.00
62051;BME280;48008;51.204;6.766;2022-12-29T00:35:33;99847.84;;;10.13;100.00
62051;BME280;48008;51.204;6.766;2022-12-29T00:38:04;99841.59;;;10.06;100.00
62051;BME280;48008;51.204;6.766;2022-12-29T00:40:51;99847.84;;;10.13;100.00
62051;BME280;48008;51.204;6.766;2022-12-29T00:43:38;99838.56;;;10.17;100.00
62051;BME280;48008;51.204;6.766;2022-12-29T00:46:25;99848.63;;;10.22;100.00
62051;BME280;48008;51.204;6.766;2022-12-29T00:48:52;99837.34;;;10.28;99.05
62051;BME280;48008;51.204;6.766;2022-12-29T00:51:39;99834.03;;;10.26;99.53
62051;BME280;48008;51.204;6.766;2022-12-29T00:54:06;99823.59;;;10.25;99.17
62051;BME280;48008;51.204;6.766;2022-12-29T00:56:32;99827.88;;;10.26;99.56
62051;BME280;48008;51.204;6.766;2022-12-29T00:59:00;99816.78;;;10.30;99.20
62051;BME280;48008;51.204;6.766;2022-12-29T01:01:28;99831.53;;;10.33;98.45
62051;BME280;48008;51.204;6.766;2022-12-29T01:03:55;99825.78;;;10.52;96.67
62051;BME280;48008;51.204;6.766;2022-12-29T01:06:25;99834.69;;;10.60;96.83
62051;BME280;48008;51.204;6.766;2022-12-29T01:08:52;99825.84;;;10.67;94.96
62051;BME280;48008;51.204;6.766;2022-12-29T01:11:40;99822.53;;;10.65;95.55
62051;BME280;48008;51.204;6.766;2022-12-29T01:14:07;99829.44;;;10.74;94.51
62051;BME280;48008;51.204;6.766;2022-12-29T01:16:34;99841.28;;;10.87;93.30
62051;BME280;48008;51.204;6.766;2022-12-29T01:19:03;99838.00;;;10.85;94.46
62051;BME280;48008;51.204;6.766;2022-12-29T01:21:30;99835.22;;;10.78;94.35
62051;BME280;48008;51.204;6.766;2022-12-29T01:23:57;99831.44;;;10.95;92.36
62051;BME280;48008;51.204;6.766;2022-12-29T01:26:24;99824.78;;;11.00;92.08
62051;BME280;48008;51.204;6.766;2022-12-29T01:28:51;99828.34;;;11.07;92.04
62051;BME280;48008;51.204;6.766;2022-12-29T01:31:18;99821.38;;;11.06;91.00
62051;BME280;48008;51.204;6.766;2022-12-29T01:33:45;99821.75;;;11.03;91.93
62051;BME280;48008;51.204;6.766;2022-12-29T01:36:13;99824.31;;;10.96;91.57
62051;BME280;48008;51.204;6.766;2022-12-29T01:38:41;99822.22;;;11.06;90.55
62051;BME280;48008;51.204;6.766;2022-12-29T01:41:10;99829.63;;;11.11;89.36
62051;BME280;48008;51.204;6.766;2022-12-29T01:43:45;99823.69;;;11.09;89.30
62051;BME280;48008;51.204;6.766;2022-12-29T01:46:36;99822.16;;;11.14;88.16
62051;BME280;48008;51.204;6.766;2022-12-29T01:51:50;99810.41;;;11.09;88.81
62051;BME280;48008;51.204;6.766;2022-12-29T01:54:22;99803.84;;;11.20;87.54
62051;BME280;48008;51.204;6.766;2022-12-29T01:56:55;99811.34;;;11.16;88.36
62051;BME280;48008;51.204;6.766;2022-12-29T01:59:27;99807.16;;;11.22;86.40
62051;BME280;48008;51.204;6.766;2022-12-29T02:01:55;99802.41;;;11.17;86.77
62051;BME280;48008;51.204;6.766;2022-12-29T02:04:23;99802.00;;;11.20;85.83
62051;BME280;48008;51.204;6.766;2022-12-29T02:06:57;99818.78;;;11.21;86.13
62051;BME280;48008;51.204;6.766;2022-12-29T02:09:26;99796.69;;;11.20;85.46
62051;BME280;48008;51.204;6.766;2022-12-29T02:11:52;99792.88;;;11.23;85.69
62051;BME280;48008;51.204;6.766;2022-12-29T02:14:20;99802.28;;;11.25;83.86
62051;BME280;48008;51.204;6.766;2022-12-29T02:32:18;99779.69;;;11.29;81.83
62051;BME280;48008;51.204;6.766;2022-12-29T02:41:08;99771.38;;;11.32;81.22
62051;BME280;48008;51.204;6.766;2022-12-29T02:43:49;99766.69;;;11.34;80.94
62051;BME280;48008;51.204;6.766;2022-12-29T02:46:23;99764.88;;;11.35;81.45
62051;BME280;48008;51.204;6.766;2022-12-29T02:49:04;99764.88;;;11.35;81.68
62051;BME280;48008;51.204;6.766;2022-12-29T02:52:15;99754.91;;;11.37;81.33
62051;BME280;48008;51.204;6.766;2022-12-29T02:54:26;99748.28;;;11.33;81.63
62051;BME280;48008;51.204;6.766;2022-12-29T02:57:12;99750.69;;;11.43;81.02
62051;BME280;48008;51.204;6.766;2022-12-29T02:59:42;99748.75;;;11.37;81.85
62051;BME280;48008;51.204;6.766;2022-12-29T03:11:23;99735.09;;;11.40;81.97
62051;BME280;48008;51.204;6.766;2022-12-29T03:14:26;99735.09;;;11.40;82.94
62051;BME280;48008;51.204;6.766;2022-12-29T03:17:30;99724.19;;;11.34;82.43
62051;BME280;48008;51.204;6.766;2022-12-29T03:20:06;99731.69;;;11.46;82.61
62051;BME280;48008;51.204;6.766;2022-12-29T03:22:42;99722.66;;;11.40;82.61
62051;BME280;48008;51.204;6.766;2022-12-29T03:25:25;99721.00;;;11.39;82.70
62051;BME280;48008;51.204;6.766;2022-12-29T03:28:01;99734.47;;;11.38;82.85
62051;BME280;48008;51.204;6.766;2022-12-29T03:30:31;99717.06;;;11.50;81.82
62051;BME280;48008;51.204;6.766;2022-12-29T03:33:02;99725.84;;;11.50;82.00
62051;BME280;48008;51.204;6.766;2022-12-29T03:35:34;99722.28;;;11.43;82.55
62051;BME280;48008;51.204;6.766;2022-12-29T03:38:14;99717.44;;;11.47;82.52
62051;BME280;48008;51.204;6.766;2022-12-29T03:40:47;99724.47;;;11.40;84.11
62051;BME280;48008;51.204;6.766;2022-12-29T03:43:15;99708.09;;;11.36;84.03
62051;BME280;48008;51.204;6.766;2022-12-29T03:45:43;99716.63;;;11.46;82.50
62051;BME280;48008;51.204;6.766;2022-12-29T03:48:11;99709.78;;;11.59;81.92
62051;BME280;48008;51.204;6.766;2022-12-29T03:50:40;99709.38;;;11.55;82.33
62051;BME280;48008;51.204;6.766;2022-12-29T03:53:07;99710.06;;;11.64;82.24
62051;BME280;48008;51.204;6.766;2022-12-29T03:55:34;99703.16;;;11.48;82.17
62051;BME280;48008;51.204;6.766;2022-12-29T03:58:01;99690.97;;;11.53;82.72
62051;BME280;48008;51.204;6.766;2022-12-29T04:00:43;99707.59;;;11.62;81.99
62051;BME280;48008;51.204;6.766;2022-12-29T04:03:10;99675.53;;;11.64;81.92
62051;BME280;48008;51.204;6.766;2022-12-29T04:05:37;99660.91;;;11.53;83.09
62051;BME280;48008;51.204;6.766;2022-12-29T04:08:03;99669.44;;;11.48;83.20
62051;BME280;48008;51.204;6.766;2022-12-29T04:10:30;99662.09;;;11.50;83.08
62051;BME280;48008;51.204;6.766;2022-12-29T04:12:59;99682.53;;;11.50;83.16
62051;BME280;48008;51.204;6.766;2022-12-29T04:15:26;99690.25;;;11.45;83.10
62051;BME280;48008;51.204;6.766;2022-12-29T04:17:53;99686.47;;;11.54;81.90
62051;BME280;48008;51.204;6.766;2022-12-29T04:20:20;99687.28;;;11.55;81.92
62051;BME280;48008;51.204;6.766;2022-12-29T04:23:07;99688.38;;;11.60;81.48
62051;BME280;48008;51.204;6.766;2022-12-29T04:25:35;99714.94;;;11.60;81.39
62051;BME280;48008;51.204;6.766;2022-12-29T04:28:02;99704.69;;;11.57;81.39
62051;BME280;48008;51.204;6.766;2022-12-29T04:30:49;99707.13;;;11.59;81.21
62051;BME280;48008;51.204;6.766;2022-12-29T04:33:21;99709.63;;;11.60;80.67
62051;BME280;48008;51.204;6.766;2022-12-29T04:35:48;99700.66;;;11.61;80.47
62051;BME280;48008;51.204;6.766;2022-12-29T04:38:16;99693.69;;;11.60;80.47
62051;BME280;48008;51.204;6.766;2022-12-29T04:40:43;99692.69;;;11.61;80.08
62051;BME280;48008;51.204;6.766;2022-12-29T04:43:10;99695.97;;;11.63;79.74
62051;BME280;48008;51.204;6.766;2022-12-29T04:45:57;99694.88;;;11.58;79.15
62051;BME280;48008;51.204;6.766;2022-12-29T04:48:29;99710.06;;;11.64;78.51
62051;BME280;48008;51.204;6.766;2022-12-29T04:51:07;99705.59;;;11.64;78.69
62051;BME280;48008;51.204;6.766;2022-12-29T04:53:37;99705.66;;;11.71;78.35
62051;BME280;48008;51.204;6.766;2022-12-29T04:56:05;99712.00;;;11.70;78.29
62051;BME280;48008;51.204;6.766;2022-12-29T04:58:31;99719.25;;;11.61;79.71
62051;BME280;48008;51.204;6.766;2022-12-29T05:00:59;99710.63;;;11.59;79.24
62051;BME280;48008;51.204;6.766;2022-12-29T05:03:28;99703.84;;;11.57;79.30
62051;BME280;48008;51.204;6.766;2022-12-29T05:05:56;99705.38;;;11.66;78.87
62051;BME280;48008;51.204;6.766;2022-12-29T05:08:23;99716.69;;;11.53;79.48
62051;BME280;48008;51.204;6.766;2022-12-29T05:10:53;99710.06;;;11.64;79.19
62051;BME280;48008;51.204;6.766;2022-12-29T05:13:20;99706.06;;;11.53;79.07
62051;BME280;48008;51.204;6.766;2022-12-29T05:15:52;99718.63;;;11.59;79.07
62051;BME280;48008;51.204;6.766;2022-12-29T05:18:21;99726.47;;;11.67;78.54
62051;BME280;48008;51.204;6.766;2022-12-29T05:20:48;99727.56;;;11.58;78.18
62051;BME280;48008;51.204;6.766;2022-12-29T05:23:17;99726.50;;;11.52;79.72
62051;BME280;48008;51.204;6.766;2022-12-29T05:25:48;99725.84;;;11.50;79.00
62051;BME280;48008;51.204;6.766;2022-12-29T05:28:18;99733.53;;;11.60;78.68
62051;BME280;48008;51.204;6.766;2022-12-29T05:30:53;99724.81;;;11.66;78.39
62051;BME280;48008;51.204;6.766;2022-12-29T05:33:20;99717.34;;;11.55;78.37
62051;BME280;48008;51.204;6.766;2022-12-29T05:35:48;99728.22;;;11.45;79.28
62051;BME280;48008;51.204;6.766;2022-12-29T05:38:16;99721.47;;;11.43;79.43
62051;BME280;48008;51.204;6.766;2022-12-29T05:40:43;99725.22;;;11.33;79.53
62051;BME280;48008;51.204;6.766;2022-12-29T05:43:21;99726.03;;;11.34;80.12
62051;BME280;48008;51.204;6.766;2022-12-29T05:46:06;99728.25;;;11.30;79.16
62051;BME280;48008;51.204;6.766;2022-12-29T05:48:44;99733.25;;;11.40;79.03
62051;BME280;48008;51.204;6.766;2022-12-29T05:51:17;99727.78;;;11.27;79.44
62051;BME280;48008;51.204;6.766;2022-12-29T05:53:48;99737.47;;;11.34;78.66
62051;BME280;48008;51.204;6.766;2022-12-29T05:56:16;99716.50;;;11.40;78.00
62051;BME280;48008;51.204;6.766;2022-12-29T05:58:45;99730.44;;;11.42;77.64
62051;BME280;48008;51.204;6.766;2022-12-29T06:01:12;99742.34;;;11.31;78.75
62051;BME280;48008;51.204;6.766;2022-12-29T06:03:38;99746.94;;;11.37;77.57
62051;BME280;48008;51.204;6.766;2022-12-29T06:06:08;99752.41;;;11.36;78.58
62051;BME280;48008;51.204;6.766;2022-12-29T06:08:36;99761.31;;;11.28;77.75
62051;BME280;48008;51.204;6.766;2022-12-29T06:11:02;99769.06;;;11.29;77.89
62051;BME280;48008;51.204;6.766;2022-12-29T06:13:29;99752.03;;;11.24;77.90
62051;BME280;48008;51.204;6.766;2022-12-29T06:15:56;99762.38;;;11.19;78.66
62051;BME280;48008;51.204;6.766;2022-12-29T06:18:25;99754.03;;;11.07;79.61
62051;BME280;48008;51.204;6.766;2022-12-29T06:20:52;99756.41;;;11.02;78.67
62051;BME280;48008;51.204;6.766;2022-12-29T06:23:18;99767.66;;;11.04;78.77
62051;BME280;48008;51.204;6.766;2022-12-29T06:25:47;99768.13;;;11.07;78.98
62051;BME280;48008;51.204;6.766;2022-12-29T06:28:14;99773.16;;;11.02;79.23
62051;BME280;48008;51.204;6.766;2022-12-29T06:30:44;99787.63;;;11.14;78.46
62051;BME280;48008;51.204;6.766;2022-12-29T06:33:12;99793.97;;;11.13;78.88
62051;BME280;48008;51.204;6.766;2022-12-29T06:35:39;99795.56;;;11.00;79.55
62051;BME280;48008;51.204;6.766;2022-12-29T06:38:05;99808.94;;;10.91;80.31
62051;BME280;48008;51.204;6.766;2022-12-29T06:40:32;99806.19;;;11.00;78.73
62051;BME280;48008;51.204;6.766;2022-12-29T06:43:19;99801.34;;;11.03;78.16
62051;BME280;48008;51.204;6.766;2022-12-29T06:46:06;99810.91;;;10.89;79.36
62051;BME280;48008;51.204;6.766;2022-12-29T06:48:32;99803.06;;;10.96;78.45
62051;BME280;48008;51.204;6.766;2022-12-29T06:50:59;99804.53;;;10.99;77.34
62051;BME280;48008;51.204;6.766;2022-12-29T06:53:26;99806.00;;;11.01;77.33
62051;BME280;48008;51.204;6.766;2022-12-29T06:55:53;99818.56;;;11.07;76.62
62051;BME280;48008;51.204;6.766;2022-12-29T06:58:20;99813.63;;;11.04;77.05
62051;BME280;48008;51.204;6.766;2022-12-29T07:00:47;99811.84;;;10.97;78.15
62051;BME280;48008;51.204;6.766;2022-12-29T07:03:14;99825.59;;;11.00;76.96
62051;BME280;48008;51.204;6.766;2022-12-29T07:05:41;99808.66;;;11.01;78.06
62051;BME280;48008;51.204;6.766;2022-12-29T07:08:08;99813.25;;;11.07;76.21
62051;BME280;48008;51.204;6.766;2022-12-29T07:10:35;99815.81;;;11.01;76.77
62051;BME280;48008;51.204;6.766;2022-12-29T07:13:02;99826.69;;;11.06;76.40
62051;BME280;48008;51.204;6.766;2022-12-29T07:15:28;99823.50;;;11.10;76.30
62051;BME280;48008;51.204;6.766;2022-12-29T07:17:55;99828.34;;;11.07;76.17
62051;BME280;48008;51.204;6.766;2022-12-29T07:20:22;99830.66;;;11.10;75.82
62051;BME280;48008;51.204;6.766;2022-12-29T07:22:52;99827.78;;;10.97;76.43
62051;BME280;48008;51.204;6.766;2022-12-29T07:25:18;99832.81;;;10.91;76.74
62051;BME280;48008;51.204;6.766;2022-12-29T07:27:45;99825.84;;;10.90;76.53
62051;BME280;48008;51.204;6.766;2022-12-29T07:30:12;99846.25;;;10.90;76.87
62051;BME280;48008;51.204;6.766;2022-12-29T07:32:39;99842.69;;;10.98;76.01
62051;BME280;48008;51.204;6.766;2022-12-29T07:35:07;99841.75;;;10.90;76.72
62051;BME280;48008;51.204;6.766;2022-12-29T07:37:34;99847.25;;;10.89;76.38
62051;BME280;48008;51.204;6.766;2022-12-29T07:40:01;99850.25;;;10.86;76.07
62051;BME280;48008;51.204;6.766;2022-12-29T07:42:30;99867.53;;;10.82;76.80
62051;BME280;48008;51.204;6.766;2022-12-29T07:44:58;99861.56;;;10.80;76.95
62051;BME280;48008;51.204;6.766;2022-12-29T07:47:29;99868.28;;;10.90;75.78
62051;BME280;48008;51.204;6.766;2022-12-29T07:49:56;99878.09;;;10.90;75.97
62051;BME280;48008;51.204;6.766;2022-12-29T07:52:22;99882.09;;;10.86;75.46
62051;BME280;48008;51.204;6.766;2022-12-29T07:54:49;99876.97;;;10.84;74.51
62051;BME280;48008;51.204;6.766;2022-12-29T07:57:16;99876.59;;;10.87;74.31
62051;BME280;48008;51.204;6.766;2022-12-29T07:59:43;99892.81;;;10.92;74.11
62051;BME280;48008;51.204;6.766;2022-12-29T08:02:10;99882.38;;;10.91;74.37
62051;BME280;48008;51.204;6.766;2022-12-29T08:04:38;99878.25;;;10.88;74.23
62051;BME280;48008;51.204;6.766;2022-12-29T08:07:04;99873.38;;;10.77;75.43
62051;BME280;48008;51.204;6.766;2022-12-29T08:09:31;99873.00;;;10.80;75.14
62051;BME280;48008;51.204;6.766;2022-12-29T08:11:58;99870.25;;;10.73;76.32
62051;BME280;48008;51.204;6.766;2022-12-29T08:14:24;99887.47;;;10.78;75.21
62051;BME280;48008;51.204;6.766;2022-12-29T08:16:51;99894.22;;;10.80;75.06
62051;BME280;48008;51.204;6.766;2022-12-29T08:19:18;99876.50;;;10.81;74.20
62051;BME280;48008;51.204;6.766;2022-12-29T08:21:44;99888.75;;;10.82;74.80
62051;BME280;48008;51.204;6.766;2022-12-29T08:24:11;99887.94;;;10.81;74.49
62051;BME280;48008;51.204;6.766;2022-12-29T08:26:38;99899.00;;;10.85;73.51
62051;BME280;48008;51.204;6.766;2022-12-29T08:29:05;99891.88;;;10.85;74.18
62051;BME280;48008;51.204;6.766;2022-12-29T08:31:32;99894.78;;;10.75;75.45
62051;BME280;48008;51.204;6.766;2022-12-29T08:33:59;99916.63;;;10.78;74.71
62051;BME280;48008;51.204;6.766;2022-12-29T08:36:26;99920.19;;;10.70;76.62
62051;BME280;48008;51.204;6.766;2022-12-29T08:38:53;99938.13;;;10.60;78.41
62051;BME280;48008;51.204;6.766;2022-12-29T08:41:19;99926.78;;;10.43;79.82
62051;BME280;48008;51.204;6.766;2022-12-29T08:43:47;99919.38;;;10.22;81.67
62051;BME280;48008;51.204;6.766;2022-12-29T08:46:14;99927.72;;;10.02;83.03
62051;BME280;48008;51.204;6.766;2022-12-29T08:48:41;99925.25;;;10.01;83.19
62051;BME280;48008;51.204;6.766;2022-12-29T08:51:08;99926.72;;;9.95;83.74
62051;BME280;48008;51.204;6.766;2022-12-29T08:53:35;99925.28;;;9.84;84.62
62051;BME280;48008;51.204;6.766;2022-12-29T08:56:02;99922.94;;;9.89;84.86
62051;BME280;48008;51.204;6.766;2022-12-29T08:58:35;99924.56;;;9.98;83.27
62051;BME280;48008;51.204;6.766;2022-12-29T09:01:02;99930.34;;;10.02;82.66
62051;BME280;48008;51.204;6.766;2022-12-29T09:03:29;99939.00;;;10.04;82.34
62051;BME280;48008;51.204;6.766;2022-12-29T09:06:17;99921.22;;;10.13;82.27
62051;BME280;48008;51.204;6.766;2022-12-29T09:08:44;99936.06;;;10.30;82.75
62051;BME280;48008;51.204;6.766;2022-12-29T09:11:18;99941.50;;;10.45;79.93
62051;BME280;48008;51.204;6.766;2022-12-29T09:13:46;99943.91;;;10.63;78.62
62051;BME280;48008;51.204;6.766;2022-12-29T09:16:13;99935.13;;;10.63;78.35
62051;BME280;48008;51.204;6.766;2022-12-29T09:18:41;99944.41;;;10.59;78.26
62051;BME280;48008;51.204;6.766;2022-12-29T09:21:09;99967.56;;;10.73;77.47
62051;BME280;48008;51.204;6.766;2022-12-29T09:23:38;99953.38;;;10.89;76.39
62051;BME280;48008;51.204;6.766;2022-12-29T09:26:06;99965.13;;;10.94;76.02
62051;BME280;48008;51.204;6.766;2022-12-29T09:28:34;99959.47;;;10.98;74.08
62051;BME280;48008;51.204;6.766;2022-12-29T09:31:01;99962.59;;;11.01;74.30
62051;BME280;48008;51.204;6.766;2022-12-29T09:33:28;99962.19;;;11.12;74.12
62051;BME280;48008;51.204;6.766;2022-12-29T09:35:56;99972.19;;;11.02;73.90
62051;BME280;48008;51.204;6.766;2022-12-29T09:38:25;99971.91;;;10.97;74.02
62051;BME280;48008;51.204;6.766;2022-12-29T09:40:54;99960.28;;;10.98;75.01
62051;BME280;48008;51.204;6.766;2022-12-29T09:43:42;99975.63;;;11.11;74.00
62051;BME280;48008;51.204;6.766;2022-12-29T09:46:20;99970.38;;;11.03;72.12
62051;BME280;48008;51.204;6.766;2022-12-29T09:51:43;99976.94;;;10.84;73.22
62051;BME280;48008;51.204;6.766;2022-12-29T09:54:38;99968.56;;;11.03;71.00
62051;BME280;48008;51.204;6.766;2022-12-29T09:57:15;99973.56;;;11.21;69.48
62051;BME280;48008;51.204;6.766;2022-12-29T09:59:45;99968.88;;;11.31;67.11
62051;BME280;48008;51.204;6.766;2022-12-29T10:02:23;99978.69;;;11.46;67.35
62051;BME280;48008;51.204;6.766;2022-12-29T10:04:52;99976.59;;;11.41;66.36
62051;BME280;48008;51.204;6.766;2022-12-29T10:10:37;99972.69;;;11.52;65.62
62051;BME280;48008;51.204;6.766;2022-12-29T10:13:27;99975.84;;;11.47;65.41
62051;BME280;48008;51.204;6.766;2022-12-29T10:16:20;99971.75;;;11.45;64.72
62051;BME280;48008;51.204;6.766;2022-12-29T10:19:03;99964.19;;;11.33;65.63
62051;BME280;48008;51.204;6.766;2022-12-29T10:24:09;99975.00;;;11.32;64.91
62051;BME280;48008;51.204;6.766;2022-12-29T10:26:41;99976.09;;;11.38;64.93
62051;BME280;48008;51.204;6.766;2022-12-29T10:29:27;99973.56;;;11.44;65.04
62051;BME280;48008;51.204;6.766;2022-12-29T10:32:00;99972.09;;;11.42;65.21
62051;BME280;48008;51.204;6.766;2022-12-29T10:34:31;99974.41;;;11.45;65.14
62051;BME280;48008;51.204;6.766;2022-12-29T10:37:05;99985.16;;;11.51;66.08
62051;BME280;48008;51.204;6.766;2022-12-29T10:39:45;99970.81;;;11.38;64.77
62051;BME280;48008;51.204;6.766;2022-12-29T10:42:28;99995.34;;;11.40;65.04
62051;BME280;48008;51.204;6.766;2022-12-29T10:44:55;99989.44;;;11.52;65.54
62051;BME280;48008;51.204;6.766;2022-12-29T10:47:29;100007.22;;;11.52;66.13
62051;BME280;48008;51.204;6.766;2022-12-29T10:49:59;99999.88;;;11.54;64.62
62051;BME280;48008;51.204;6.766;2022-12-29T10:52:28;99995.38;;;11.55;65.02
62051;BME280;48008;51.204;6.766;2022-12-29T10:55:09;99989.38;;;11.61;64.92
62051;BME280;48008;51.204;6.766;2022-12-29T10:57:42;100016.03;;;11.67;64.67
62051;BME280;48008;51.204;6.766;2022-12-29T11:00:14;100011.91;;;11.65;63.85
62051;BME280;48008;51.204;6.766;2022-12-29T11:05:51;100016.16;;;12.12;62.29
62051;BME280;48008;51.204;6.766;2022-12-29T11:08:25;100011.69;;;12.57;61.35
62051;BME280;48008;51.204;6.766;2022-12-29T11:11:03;100022.88;;;11.85;62.62
62051;BME280;48008;51.204;6.766;2022-12-29T11:13:32;100014.56;;;11.65;63.63
62051;BME280;48008;51.204;6.766;2022-12-29T11:16:04;100027.97;;;11.48;64.17
62051;BME280;48008;51.204;6.766;2022-12-29T11:18:34;100031.63;;;11.47;64.69
62051;BME280;48008;51.204;6.766;2022-12-29T11:21:09;100039.81;;;12.07;64.04
62051;BME280;48008;51.204;6.766;2022-12-29T11:24:26;100044.66;;;12.03;63.09
62051;BME280;48008;51.204;6.766;2022-12-29T11:26:55;100039.44;;;11.72;64.06
62051;BME280;48008;51.204;6.766;2022-12-29T11:29:28;100042.41;;;11.46;65.34
62051;BME280;48008;51.204;6.766;2022-12-29T11:31:58;100056.00;;;11.28;65.34
62051;BME280;48008;51.204;6.766;2022-12-29T11:34:32;100048.91;;;11.20;65.38
62051;BME280;48008;51.204;6.766;2022-12-29T11:37:03;100060.84;;;11.24;65.09
62051;BME280;48008;51.204;6.766;2022-12-29T11:39:34;100042.13;;;11.18;65.45
62051;BME280;48008;51.204;6.766;2022-12-29T11:42:03;100043.09;;;11.17;65.05
62051;BME280;48008;51.204;6.766;2022-12-29T11:44:42;100047.94;;;11.13;64.87
62051;BME280;48008;51.204;6.766;2022-12-29T11:47:19;100049.28;;;11.09;65.42
62051;BME280;48008;51.204;6.766;2022-12-29T11:49:52;100057.50;;;10.99;66.27
62051;BME280;48008;51.204;6.766;2022-12-29T11:52:23;100064.56;;;11.07;65.79
62051;BME280;48008;51.204;6.766;2022-12-29T11:54:50;100065.56;;;11.06;65.53
62051;BME280;48008;51.204;6.766;2022-12-29T11:57:19;100062.09;;;11.05;64.81
62051;BME280;48008;51.204;6.766;2022-12-29T11:59:52;100076.72;;;10.93;65.51
62051;BME280;48008;51.204;6.766;2022-12-29T12:02:30;100076.06;;;10.99;66.02
62051;BME280;48008;51.204;6.766;2022-12-29T12:05:08;100074.72;;;10.95;66.02
62051;BME280;48008;51.204;6.766;2022-12-29T12:07:40;100080.25;;;10.85;66.66
62051;BME280;48008;51.204;6.766;2022-12-29T12:10:15;100081.75;;;10.88;66.22
62051;BME280;48008;51.204;6.766;2022-12-29T12:13:03;100077.38;;;10.95;66.21
62051;BME280;48008;51.204;6.766;2022-12-29T12:15:43;100081.38;;;10.91;66.41
62051;BME280;48008;51.204;6.766;2022-12-29T12:18:49;100077.94;;;10.82;66.08
62051;BME280;48008;51.204;6.766;2022-12-29T12:21:27;100083.41;;;10.89;65.98
62051;BME280;48008;51.204;6.766;2022-12-29T12:27:13;100097.53;;;10.81;65.90
62051;BME280;48008;51.204;6.766;2022-12-29T12:29:50;100077.28;;;10.80;65.80
62051;BME280;48008;51.204;6.766;2022-12-29T12:32:23;100095.03;;;10.80;65.51
62051;BME280;48008;51.204;6.766;2022-12-29T12:34:53;100088.91;;;10.79;65.69
62051;BME280;48008;51.204;6.766;2022-12-29T12:41:07;100074.47;;;10.82;65.85
62051;BME280;48008;51.204;6.766;2022-12-29T12:43:34;100094.88;;;10.73;66.31
62051;BME280;48008;51.204;6.766;2022-12-29T12:46:27;100097.06;;;10.69;66.28
62051;BME280;48008;51.204;6.766;2022-12-29T12:51:45;100105.69;;;10.71;65.96
62051;BME280;48008;51.204;6.766;2022-12-29T13:00:18;100108.53;;;10.62;66.10
62051;BME280;48008;51.204;6.766;2022-12-29T13:02:59;100111.50;;;10.67;65.96
62051;BME280;48008;51.204;6.766;2022-12-29T13:05:39;100143.66;;;10.64;65.86
62051;BME280;48008;51.204;6.766;2022-12-29T13:11:45;100119.13;;;10.62;68.14
62051;BME280;48008;51.204;6.766;2022-12-29T13:14:34;100137.19;;;10.58;68.23
62051;BME280;48008;51.204;6.766;2022-12-29T13:20:06;100133.22;;;10.62;66.73
62051;BME280;48008;51.204;6.766;2022-12-29T13:22:46;100139.84;;;10.58;66.58
62051;BME280;48008;51.204;6.766;2022-12-29T13:25:32;100129.94;;;10.52;67.31
62051;BME280;48008;51.204;6.766;2022-12-29T13:28:25;100121.63;;;10.55;67.63
62051;BME280;48008;51.204;6.766;2022-12-29T13:31:19;100131.56;;;10.61;67.39
62051;BME280;48008;51.204;6.766;2022-12-29T13:34:14;100128.88;;;10.69;67.33
62051;BME280;48008;51.204;6.766;2022-12-29T13:36:47;100133.69;;;10.74;67.41
62051;BME280;48008;51.204;6.766;2022-12-29T13:39:21;100129.72;;;10.70;67.08
62051;BME280;48008;51.204;6.766;2022-12-29T13:41:50;100130.88;;;10.75;66.89
62051;BME280;48008;51.204;6.766;2022-12-29T13:44:40;100125.69;;;10.90;65.92
62051;BME280;48008;51.204;6.766;2022-12-29T13:47:37;100134.50;;;10.83;65.21
62051;BME280;48008;51.204;6.766;2022-12-29T13:50:12;100137.97;;;10.83;65.10
62051;BME280;48008;51.204;6.766;2022-12-29T13:53:15;100126.56;;;10.74;65.22
62051;BME280;48008;51.204;6.766;2022-12-29T13:55:41;100134.69;;;10.73;65.12
62051;BME280;48008;51.204;6.766;2022-12-29T14:03:59;100133.38;;;10.69;65.06
62051;BME280;48008;51.204;6.766;2022-12-29T14:06:31;100144.16;;;10.67;64.70
62051;BME280;48008;51.204;6.766;2022-12-29T14:09:02;100138.50;;;10.70;65.31
62051;BME280;48008;51.204;6.766;2022-12-29T14:11:35;100145.00;;;10.68;65.65
62051;BME280;48008;51.204;6.766;2022-12-29T14:14:24;100143.00;;;10.62;65.30
62051;BME280;48008;51.204;6.766;2022-12-29T14:16:52;100154.47;;;10.54;65.81
62051;BME280;48008;51.204;6.766;2022-12-29T14:19:29;100144.50;;;10.56;65.98
62051;BME280;48008;51.204;6.766;2022-12-29T14:22:00;100156.13;;;10.47;66.00
62051;BME280;48008;51.204;6.766;2022-12-29T14:24:44;100160.13;;;10.43;66.82
62051;BME280;48008;51.204;6.766;2022-12-29T14:29:49;100165.91;;;10.46;65.85
62051;BME280;48008;51.204;6.766;2022-12-29T14:35:49;100172.03;;;10.47;66.55
62051;BME280;48008;51.204;6.766;2022-12-29T14:38:16;100171.53;;;10.43;65.77
62051;BME280;48008;51.204;6.766;2022-12-29T14:40:44;100174.00;;;10.36;66.61
62051;BME280;48008;51.204;6.766;2022-12-29T14:43:21;100178.19;;;10.39;66.23
62051;BME280;48008;51.204;6.766;2022-12-29T14:45:57;100170.06;;;10.41;66.90